sensor_id;sensor_type;location;lat;lon;timestamp;temperature;humidity
17452;DHT22;8843;48.838;9.324;2024-01-25T00:00:54;8.50;99.90
17452;DHT22;8843;48.838;9.324;2024-01-25T00:03:21;8.50;99.90
17452;DHT22;8843;48.838;9.324;2024-01-25T00:05:48;8.50;99.90
17452;DHT22;8843;48.838;9.324;2024-01-25T00:08:16;8.50;99.90
17452;DHT22;8843;48.838;9.324;2024-01-25T00:10:44;8.50;99.90
17452;DHT22;8843;48.838;9.324;2024-01-25T00:13:11;8.50;99.90
17452;DHT22;8843;48.838;9.324;2024-01-25T00:15:38;8.50;99.90
17452;DHT22;8843;48.838;9.324;2024-01-25T00:18:06;8.50;99.90
17452;DHT22;8843;48.838;9.324;2024-01-25T00:20:33;8.50;99.90
17452;DHT22;8843;48.838;9.324;2024-01-25T00:23:00;8.50;99.90
17452;DHT22;8843;48.838;9.324;2024-01-25T00:25:28;8.50;99.90
17452;DHT22;8843;48.838;9.324;2024-01-25T00:27:56;8.50;99.90
17452;DHT22;8843;48.838;9.324;2024-01-25T00:30:23;8.50;99.90
17452;DHT22;8843;48.838;9.324;2024-01-25T00:32:51;8.40;99.90
17452;DHT22;8843;48.838;9.324;2024-01-25T00:35:19;8.50;99.90
17452;DHT22;8843;48.838;9.324;2024-01-25T00:37:46;8.50;99.90
17452;DHT22;8843;48.838;9.324;2024-01-25T00:40:16;8.50;99.90
17452;DHT22;8843;48.838;9.324;2024-01-25T00:42:45;8.50;99.90
17452;DHT22;8843;48.838;9.324;2024-01-25T00:45:16;8.50;99.90
17452;DHT22;8843;48.838;9.324;2024-01-25T00:47:44;8.50;99.90
17452;DHT22;8843;48.838;9.324;2024-01-25T00:50:12;8.50;99.90
17452;DHT22;8843;48.838;9.324;2024-01-25T00:52:41;8.50;99.90
17452;DHT22;8843;48.838;9.324;2024-01-25T00:55:09;8.50;99.90
17452;DHT22;8843;48.838;9.324;2024-01-25T00:57:37;8.50;99.90
17452;DHT22;8843;48.838;9.324;2024-01-25T01:00:06;8.50;99.90
17452;DHT22;8843;48.838;9.324;2024-01-25T01:02:37;8.50;99.90
17452;DHT22;8843;48.838;9.324;2024-01-25T01:05:06;8.50;99.90
17452;DHT22;8843;48.838;9.324;2024-01-25T01:07:34;8.50;99.90
17452;DHT22;8843;48.838;9.324;2024-01-25T01:10:01;8.50;99.90
17452;DHT22;8843;48.838;9.324;2024-01-25T01:12:28;8.50;99.90
17452;DHT22;8843;48.838;9.324;2024-01-25T01:14:57;8.50;99.90
17452;DHT22;8843;48.838;9.324;2024-01-25T01:17:24;8.50;99.90
17452;DHT22;8843;48.838;9.324;2024-01-25T01:19:54;8.50;99.90
17452;DHT22;8843;48.838;9.324;2024-01-25T01:22:21;8.50;99.90
17452;DHT22;8843;48.838;9.324;2024-01-25T01:24:48;8.50;99.90
17452;DHT22;8843;48.838;9.324;2024-01-25T01:27:16;8.50;99.90
17452;DHT22;8843;48.838;9.324;2024-01-25T01:29:43;8.50;99.90
17452;DHT22;8843;48.838;9.324;2024-01-25T01:32:10;8.50;99.90
17452;DHT22;8843;48.838;9.324;2024-01-25T01:34:37;8.50;99.90
17452;DHT22;8843;48.838;9.324;2024-01-25T01:37:06;8.50;99.90
17452;DHT22;8843;48.838;9.324;2024-01-25T01:39:33;8.50;99.90
17452;DHT22;8843;48.838;9.324;2024-01-25T01:42:00;8.50;99.90
17452;DHT22;8843;48.838;9.324;2024-01-25T01:44:30;8.50;99.90
17452;DHT22;8843;48.838;9.324;2024-01-25T01:46:58;8.50;99.90
17452;DHT22;8843;48.838;9.324;2024-01-25T01:49:25;8.50;99.90
17452;DHT22;8843;48.838;9.324;2024-01-25T01:51:53;8.50;99.90
17452;DHT22;8843;48.838;9.324;2024-01-25T01:54:21;8.50;99.90
17452;DHT22;8843;48.838;9.324;2024-01-25T01:56:48;8.50;99.90
17452;DHT22;8843;48.838;9.324;2024-01-25T01:59:16;8.50;99.90
17452;DHT22;8843;48.838;9.324;2024-01-25T02:01:44;8.50;99.90
17452;DHT22;8843;48.838;9.324;2024-01-25T02:04:11;8.50;99.90
17452;DHT22;8843;48.838;9.324;2024-01-25T02:06:39;8.50;99.90
17452;DHT22;8843;48.838;9.324;2024-01-25T02:09:06;8.50;99.90
17452;DHT22;8843;48.838;9.324;2024-01-25T02:11:35;8.50;99.90
17452;DHT22;8843;48.838;9.324;2024-01-25T02:14:02;8.50;99.90
17452;DHT22;8843;48.838;9.324;2024-01-25T02:16:36;8.60;99.90
17452;DHT22;8843;48.838;9.324;2024-01-25T02:19:03;8.50;99.90
17452;DHT22;8843;48.838;9.324;2024-01-25T02:21:30;8.50;99.90
17452;DHT22;8843;48.838;9.324;2024-01-25T02:23:59;8.50;99.90
17452;DHT22;8843;48.838;9.324;2024-01-25T02:26:25;8.60;99.90
17452;DHT22;8843;48.838;9.324;2024-01-25T02:28:53;8.60;99.90
17452;DHT22;8843;48.838;9.324;2024-01-25T02:31:20;8.50;99.90
17452;DHT22;8843;48.838;9.324;2024-01-25T02:33:47;8.50;99.90
17452;DHT22;8843;48.838;9.324;2024-01-25T02:36:14;8.60;99.90
17452;DHT22;8843;48.838;9.324;2024-01-25T02:38:41;8.60;99.90
17452;DHT22;8843;48.838;9.324;2024-01-25T02:41:10;8.50;99.90
17452;DHT22;8843;48.838;9.324;2024-01-25T02:43:37;8.60;99.90
17452;DHT22;8843;48.838;9.324;2024-01-25T02:46:04;8.60;99.90
17452;DHT22;8843;48.838;9.324;2024-01-25T02:48:31;8.50;99.90
17452;DHT22;8843;48.838;9.324;2024-01-25T02:50:58;8.60;99.90
17452;DHT22;8843;48.838;9.324;2024-01-25T02:53:26;8.50;99.90
17452;DHT22;8843;48.838;9.324;2024-01-25T02:55:53;8.50;99.90
17452;DHT22;8843;48.838;9.324;2024-01-25T02:58:23;8.50;99.90
17452;DHT22;8843;48.838;9.324;2024-01-25T03:00:51;8.50;99.90
17452;DHT22;8843;48.838;9.324;2024-01-25T03:03:19;8.50;99.90
17452;DHT22;8843;48.838;9.324;2024-01-25T03:05:49;8.60;99.90
17452;DHT22;8843;48.838;9.324;2024-01-25T03:08:16;8.50;99.90
17452;DHT22;8843;48.838;9.324;2024-01-25T03:10:43;8.50;99.90
17452;DHT22;8843;48.838;9.324;2024-01-25T03:13:10;8.50;99.90
17452;DHT22;8843;48.838;9.324;2024-01-25T03:15:39;8.50;99.90
17452;DHT22;8843;48.838;9.324;2024-01-25T03:18:06;8.50;99.90
17452;DHT22;8843;48.838;9.324;2024-01-25T03:20:33;8.50;99.90
17452;DHT22;8843;48.838;9.324;2024-01-25T03:23:00;8.50;99.90
17452;DHT22;8843;48.838;9.324;2024-01-25T03:25:28;8.50;99.90
17452;DHT22;8843;48.838;9.324;2024-01-25T03:27:59;8.60;99.90
17452;DHT22;8843;48.838;9.324;2024-01-25T03:30:26;8.50;99.90
17452;DHT22;8843;48.838;9.324;2024-01-25T03:32:55;8.50;99.90
17452;DHT22;8843;48.838;9.324;2024-01-25T03:35:22;8.50;99.90
17452;DHT22;8843;48.838;9.324;2024-01-25T03:37:50;8.50;99.90
17452;DHT22;8843;48.838;9.324;2024-01-25T03:40:17;8.50;99.90
17452;DHT22;8843;48.838;9.324;2024-01-25T03:42:44;8.50;99.90
17452;DHT22;8843;48.838;9.324;2024-01-25T03:45:13;8.50;99.90
17452;DHT22;8843;48.838;9.324;2024-01-25T03:47:40;8.50;99.90
17452;DHT22;8843;48.838;9.324;2024-01-25T03:50:09;8.50;99.90
17452;DHT22;8843;48.838;9.324;2024-01-25T03:52:36;8.50;99.90
17452;DHT22;8843;48.838;9.324;2024-01-25T03:55:08;8.50;99.90
17452;DHT22;8843;48.838;9.324;2024-01-25T03:57:35;8.50;99.90
17452;DHT22;8843;48.838;9.324;2024-01-25T04:00:07;8.40;99.90
17452;DHT22;8843;48.838;9.324;2024-01-25T04:02:34;8.50;99.90
17452;DHT22;8843;48.838;9.324;2024-01-25T04:05:01;8.50;99.90
17452;DHT22;8843;48.838;9.324;2024-01-25T04:07:29;8.50;99.90
17452;DHT22;8843;48.838;9.324;2024-01-25T04:09:56;8.50;99.90
17452;DHT22;8843;48.838;9.324;2024-01-25T04:12:23;8.50;99.90
17452;DHT22;8843;48.838;9.324;2024-01-25T04:14:51;8.50;99.90
17452;DHT22;8843;48.838;9.324;2024-01-25T04:17:19;8.40;99.90
17452;DHT22;8843;48.838;9.324;2024-01-25T04:19:47;8.40;99.90
17452;DHT22;8843;48.838;9.324;2024-01-25T04:22:14;8.40;99.90
17452;DHT22;8843;48.838;9.324;2024-01-25T04:24:43;8.50;99.90
17452;DHT22;8843;48.838;9.324;2024-01-25T04:27:10;8.50;99.90
17452;DHT22;8843;48.838;9.324;2024-01-25T04:29:38;8.40;99.90
17452;DHT22;8843;48.838;9.324;2024-01-25T04:32:06;8.50;99.90
17452;DHT22;8843;48.838;9.324;2024-01-25T04:34:34;8.50;99.90
17452;DHT22;8843;48.838;9.324;2024-01-25T04:37:02;8.40;99.90
17452;DHT22;8843;48.838;9.324;2024-01-25T04:39:29;8.40;99.90
17452;DHT22;8843;48.838;9.324;2024-01-25T04:41:58;8.40;99.90
17452;DHT22;8843;48.838;9.324;2024-01-25T04:44:25;8.40;99.90
17452;DHT22;8843;48.838;9.324;2024-01-25T04:46:52;8.40;99.90
17452;DHT22;8843;48.838;9.324;2024-01-25T04:49:20;8.40;99.90
17452;DHT22;8843;48.838;9.324;2024-01-25T04:51:47;8.40;99.90
17452;DHT22;8843;48.838;9.324;2024-01-25T04:54:14;8.40;99.90
17452;DHT22;8843;48.838;9.324;2024-01-25T04:56:44;8.40;99.90
17452;DHT22;8843;48.838;9.324;2024-01-25T04:59:12;8.40;99.90
17452;DHT22;8843;48.838;9.324;2024-01-25T05:01:39;8.40;99.90
17452;DHT22;8843;48.838;9.324;2024-01-25T05:04:06;8.40;99.90
17452;DHT22;8843;48.838;9.324;2024-01-25T05:06:33;8.40;99.90
17452;DHT22;8843;48.838;9.324;2024-01-25T05:09:00;8.40;99.90
17452;DHT22;8843;48.838;9.324;2024-01-25T05:11:27;8.40;99.90
17452;DHT22;8843;48.838;9.324;2024-01-25T05:13:55;8.40;99.90
17452;DHT22;8843;48.838;9.324;2024-01-25T05:16:24;8.40;99.90
17452;DHT22;8843;48.838;9.324;2024-01-25T05:18:51;8.40;99.90
17452;DHT22;8843;48.838;9.324;2024-01-25T05:21:18;8.40;99.90
17452;DHT22;8843;48.838;9.324;2024-01-25T05:23:45;8.40;99.90
17452;DHT22;8843;48.838;9.324;2024-01-25T05:26:12;8.40;99.90
17452;DHT22;8843;48.838;9.324;2024-01-25T05:28:39;8.40;99.90
17452;DHT22;8843;48.838;9.324;2024-01-25T05:31:07;8.40;99.90
17452;DHT22;8843;48.838;9.324;2024-01-25T05:33:39;8.40;99.90
17452;DHT22;8843;48.838;9.324;2024-01-25T05:36:07;8.40;99.90
17452;DHT22;8843;48.838;9.324;2024-01-25T05:38:34;8.40;99.90
17452;DHT22;8843;48.838;9.324;2024-01-25T05:41:01;8.30;99.80
17452;DHT22;8843;48.838;9.324;2024-01-25T05:43:28;8.40;99.90
17452;DHT22;8843;48.838;9.324;2024-01-25T05:45:55;8.40;99.90
17452;DHT22;8843;48.838;9.324;2024-01-25T05:48:22;8.30;99.90
17452;DHT22;8843;48.838;9.324;2024-01-25T05:50:52;8.30;99.90
17452;DHT22;8843;48.838;9.324;2024-01-25T05:53:20;8.30;99.80
17452;DHT22;8843;48.838;9.324;2024-01-25T05:55:48;8.30;99.70
17452;DHT22;8843;48.838;9.324;2024-01-25T05:58:15;8.30;99.90
17452;DHT22;8843;48.838;9.324;2024-01-25T06:00:43;8.30;99.70
17452;DHT22;8843;48.838;9.324;2024-01-25T06:03:09;8.30;99.80
17452;DHT22;8843;48.838;9.324;2024-01-25T06:05:37;8.30;99.90
17452;DHT22;8843;48.838;9.324;2024-01-25T06:08:06;8.30;99.90
17452;DHT22;8843;48.838;9.324;2024-01-25T06:10:33;8.30;99.60
17452;DHT22;8843;48.838;9.324;2024-01-25T06:13:01;8.30;99.80
17452;DHT22;8843;48.838;9.324;2024-01-25T06:15:31;8.20;99.90
17452;DHT22;8843;48.838;9.324;2024-01-25T06:17:59;8.30;99.90
17452;DHT22;8843;48.838;9.324;2024-01-25T06:20:27;8.30;99.90
17452;DHT22;8843;48.838;9.324;2024-01-25T06:22:56;8.30;99.90
17452;DHT22;8843;48.838;9.324;2024-01-25T06:25:25;8.30;99.90
17452;DHT22;8843;48.838;9.324;2024-01-25T06:27:56;8.30;99.90
17452;DHT22;8843;48.838;9.324;2024-01-25T06:30:24;8.30;99.90
17452;DHT22;8843;48.838;9.324;2024-01-25T06:32:51;8.20;99.70
17452;DHT22;8843;48.838;9.324;2024-01-25T06:35:18;8.20;99.30
17452;DHT22;8843;48.838;9.324;2024-01-25T06:37:45;8.30;99.80
17452;DHT22;8843;48.838;9.324;2024-01-25T06:40:12;8.20;98.90
17452;DHT22;8843;48.838;9.324;2024-01-25T06:42:42;9.40;99.90
17452;DHT22;8843;48.838;9.324;2024-01-25T06:45:10;9.70;97.80
17452;DHT22;8843;48.838;9.324;2024-01-25T06:47:39;9.20;98.20
17452;DHT22;8843;48.838;9.324;2024-01-25T06:50:07;8.90;98.70
17452;DHT22;8843;48.838;9.324;2024-01-25T06:52:35;8.70;99.00
17452;DHT22;8843;48.838;9.324;2024-01-25T06:55:03;8.60;99.40
17452;DHT22;8843;48.838;9.324;2024-01-25T06:57:33;8.50;99.70
17452;DHT22;8843;48.838;9.324;2024-01-25T07:00:05;8.40;99.90
17452;DHT22;8843;48.838;9.324;2024-01-25T07:02:33;8.40;99.90
17452;DHT22;8843;48.838;9.324;2024-01-25T07:05:01;8.40;99.90
17452;DHT22;8843;48.838;9.324;2024-01-25T07:07:30;8.40;99.90
17452;DHT22;8843;48.838;9.324;2024-01-25T07:10:00;8.40;99.90
17452;DHT22;8843;48.838;9.324;2024-01-25T07:12:27;8.30;99.90
17452;DHT22;8843;48.838;9.324;2024-01-25T07:14:56;8.30;99.90
17452;DHT22;8843;48.838;9.324;2024-01-25T07:17:24;8.40;99.90
17452;DHT22;8843;48.838;9.324;2024-01-25T07:19:53;8.30;99.90
17452;DHT22;8843;48.838;9.324;2024-01-25T07:22:20;8.30;99.90
17452;DHT22;8843;48.838;9.324;2024-01-25T07:24:51;8.40;99.90
17452;DHT22;8843;48.838;9.324;2024-01-25T07:27:18;8.30;99.90
17452;DHT22;8843;48.838;9.324;2024-01-25T07:29:45;8.30;99.90
17452;DHT22;8843;48.838;9.324;2024-01-25T07:32:12;8.30;99.90
17452;DHT22;8843;48.838;9.324;2024-01-25T07:34:41;8.30;99.90
17452;DHT22;8843;48.838;9.324;2024-01-25T07:37:08;8.30;99.90
17452;DHT22;8843;48.838;9.324;2024-01-25T07:39:38;8.30;99.90
17452;DHT22;8843;48.838;9.324;2024-01-25T07:42:07;8.30;99.90
17452;DHT22;8843;48.838;9.324;2024-01-25T07:44:36;8.30;99.90
17452;DHT22;8843;48.838;9.324;2024-01-25T07:47:03;8.30;99.90
17452;DHT22;8843;48.838;9.324;2024-01-25T07:49:31;8.20;99.90
17452;DHT22;8843;48.838;9.324;2024-01-25T07:52:02;8.30;99.90
17452;DHT22;8843;48.838;9.324;2024-01-25T07:54:30;8.30;99.90
17452;DHT22;8843;48.838;9.324;2024-01-25T07:56:57;8.20;99.90
17452;DHT22;8843;48.838;9.324;2024-01-25T07:59:24;8.30;99.80
17452;DHT22;8843;48.838;9.324;2024-01-25T08:01:51;8.30;99.90
17452;DHT22;8843;48.838;9.324;2024-01-25T08:04:18;8.20;99.90
17452;DHT22;8843;48.838;9.324;2024-01-25T08:06:45;8.20;99.90
17452;DHT22;8843;48.838;9.324;2024-01-25T08:09:13;8.20;99.90
17452;DHT22;8843;48.838;9.324;2024-01-25T08:11:41;8.20;99.90
17452;DHT22;8843;48.838;9.324;2024-01-25T08:14:08;8.20;99.90
17452;DHT22;8843;48.838;9.324;2024-01-25T08:16:36;8.20;99.90
17452;DHT22;8843;48.838;9.324;2024-01-25T08:19:05;8.30;99.90
17452;DHT22;8843;48.838;9.324;2024-01-25T08:21:32;8.20;99.90
17452;DHT22;8843;48.838;9.324;2024-01-25T08:24:01;8.20;99.90
17452;DHT22;8843;48.838;9.324;2024-01-25T08:26:29;8.20;99.90
17452;DHT22;8843;48.838;9.324;2024-01-25T08:28:57;8.20;99.90
17452;DHT22;8843;48.838;9.324;2024-01-25T08:31:26;8.20;99.90
17452;DHT22;8843;48.838;9.324;2024-01-25T08:33:54;8.20;99.90
17452;DHT22;8843;48.838;9.324;2024-01-25T08:36:22;8.20;99.90
17452;DHT22;8843;48.838;9.324;2024-01-25T08:38:50;8.20;99.90
17452;DHT22;8843;48.838;9.324;2024-01-25T08:41:18;8.20;99.90
17452;DHT22;8843;48.838;9.324;2024-01-25T08:43:47;8.20;99.90
17452;DHT22;8843;48.838;9.324;2024-01-25T08:46:15;8.20;99.90
17452;DHT22;8843;48.838;9.324;2024-01-25T08:48:42;8.20;99.90
17452;DHT22;8843;48.838;9.324;2024-01-25T08:51:10;8.20;99.90
17452;DHT22;8843;48.838;9.324;2024-01-25T08:53:37;8.20;99.90
17452;DHT22;8843;48.838;9.324;2024-01-25T08:56:07;8.20;99.90
17452;DHT22;8843;48.838;9.324;2024-01-25T08:58:34;8.20;99.90
17452;DHT22;8843;48.838;9.324;2024-01-25T09:01:04;8.20;99.90
17452;DHT22;8843;48.838;9.324;2024-01-25T09:03:32;8.20;99.90
17452;DHT22;8843;48.838;9.324;2024-01-25T09:05:59;8.30;99.90
17452;DHT22;8843;48.838;9.324;2024-01-25T09:08:30;8.30;99.90
17452;DHT22;8843;48.838;9.324;2024-01-25T09:10:57;8.30;99.90
17452;DHT22;8843;48.838;9.324;2024-01-25T09:13:25;8.40;99.90
17452;DHT22;8843;48.838;9.324;2024-01-25T09:15:52;8.40;99.90
17452;DHT22;8843;48.838;9.324;2024-01-25T09:18:20;8.40;99.90
17452;DHT22;8843;48.838;9.324;2024-01-25T09:20:47;8.40;99.90
17452;DHT22;8843;48.838;9.324;2024-01-25T09:23:15;8.40;99.90
17452;DHT22;8843;48.838;9.324;2024-01-25T09:25:44;8.40;99.90
17452;DHT22;8843;48.838;9.324;2024-01-25T09:28:12;8.50;99.90
17452;DHT22;8843;48.838;9.324;2024-01-25T09:30:41;8.50;99.90
17452;DHT22;8843;48.838;9.324;2024-01-25T09:33:09;8.50;99.90
17452;DHT22;8843;48.838;9.324;2024-01-25T09:35:37;8.50;99.90
17452;DHT22;8843;48.838;9.324;2024-01-25T09:38:04;8.50;99.90
17452;DHT22;8843;48.838;9.324;2024-01-25T09:40:33;8.60;99.90
17452;DHT22;8843;48.838;9.324;2024-01-25T09:43:01;8.60;99.90
17452;DHT22;8843;48.838;9.324;2024-01-25T09:45:31;8.60;99.90
17452;DHT22;8843;48.838;9.324;2024-01-25T09:48:00;8.70;99.90
17452;DHT22;8843;48.838;9.324;2024-01-25T09:50:33;8.70;99.90
17452;DHT22;8843;48.838;9.324;2024-01-25T09:53:03;8.70;99.90
17452;DHT22;8843;48.838;9.324;2024-01-25T09:55:35;8.80;99.90
17452;DHT22;8843;48.838;9.324;2024-01-25T09:58:05;8.80;99.90
17452;DHT22;8843;48.838;9.324;2024-01-25T10:00:33;8.70;99.90
17452;DHT22;8843;48.838;9.324;2024-01-25T10:03:03;8.80;99.90
17452;DHT22;8843;48.838;9.324;2024-01-25T10:05:30;8.80;99.90
17452;DHT22;8843;48.838;9.324;2024-01-25T10:07:57;8.80;99.90
17452;DHT22;8843;48.838;9.324;2024-01-25T10:10:32;8.80;99.90
17452;DHT22;8843;48.838;9.324;2024-01-25T10:13:02;8.80;99.90
17452;DHT22;8843;48.838;9.324;2024-01-25T10:15:33;8.80;99.90
17452;DHT22;8843;48.838;9.324;2024-01-25T10:18:01;8.80;99.90
17452;DHT22;8843;48.838;9.324;2024-01-25T10:20:31;8.80;99.90
17452;DHT22;8843;48.838;9.324;2024-01-25T10:23:00;8.80;99.90
17452;DHT22;8843;48.838;9.324;2024-01-25T10:25:29;8.80;99.90
17452;DHT22;8843;48.838;9.324;2024-01-25T10:27:57;8.80;99.90
17452;DHT22;8843;48.838;9.324;2024-01-25T10:30:24;8.80;99.90
17452;DHT22;8843;48.838;9.324;2024-01-25T10:32:53;8.80;99.90
17452;DHT22;8843;48.838;9.324;2024-01-25T10:35:22;8.90;99.90
17452;DHT22;8843;48.838;9.324;2024-01-25T10:37:50;8.90;99.90
17452;DHT22;8843;48.838;9.324;2024-01-25T10:40:19;8.90;99.90
17452;DHT22;8843;48.838;9.324;2024-01-25T10:42:48;8.90;99.90
17452;DHT22;8843;48.838;9.324;2024-01-25T10:45:15;8.90;99.90
17452;DHT22;8843;48.838;9.324;2024-01-25T10:47:43;8.90;99.90
17452;DHT22;8843;48.838;9.324;2024-01-25T10:50:12;8.90;99.90
17452;DHT22;8843;48.838;9.324;2024-01-25T10:52:40;9.00;99.90
17452;DHT22;8843;48.838;9.324;2024-01-25T10:55:09;9.00;99.90
17452;DHT22;8843;48.838;9.324;2024-01-25T10:57:42;9.00;99.90
17452;DHT22;8843;48.838;9.324;2024-01-25T11:00:15;9.10;99.90
17452;DHT22;8843;48.838;9.324;2024-01-25T11:02:45;9.10;99.90
17452;DHT22;8843;48.838;9.324;2024-01-25T11:05:16;9.10;99.80
17452;DHT22;8843;48.838;9.324;2024-01-25T11:07:45;9.10;99.60
17452;DHT22;8843;48.838;9.324;2024-01-25T11:10:15;9.10;99.50
17452;DHT22;8843;48.838;9.324;2024-01-25T11:12:50;9.10;99.60
17452;DHT22;8843;48.838;9.324;2024-01-25T11:15:20;9.20;99.60
17452;DHT22;8843;48.838;9.324;2024-01-25T11:17:52;9.30;99.60
17452;DHT22;8843;48.838;9.324;2024-01-25T11:20:21;9.30;99.40
17452;DHT22;8843;48.838;9.324;2024-01-25T11:22:54;9.30;99.70
17452;DHT22;8843;48.838;9.324;2024-01-25T11:25:23;9.40;99.50
17452;DHT22;8843;48.838;9.324;2024-01-25T11:27:50;9.40;99.40
17452;DHT22;8843;48.838;9.324;2024-01-25T11:30:19;9.40;99.50
17452;DHT22;8843;48.838;9.324;2024-01-25T11:32:46;9.50;99.60
17452;DHT22;8843;48.838;9.324;2024-01-25T11:35:14;9.50;99.50
17452;DHT22;8843;48.838;9.324;2024-01-25T11:37:43;9.70;99.90
17452;DHT22;8843;48.838;9.324;2024-01-25T11:40:11;9.80;99.90
17452;DHT22;8843;48.838;9.324;2024-01-25T11:42:38;9.90;99.90
17452;DHT22;8843;48.838;9.324;2024-01-25T11:45:06;10.10;98.60
17452;DHT22;8843;48.838;9.324;2024-01-25T11:47:36;10.60;99.20
17452;DHT22;8843;48.838;9.324;2024-01-25T11:50:05;10.80;98.30
17452;DHT22;8843;48.838;9.324;2024-01-25T11:52:34;11.10;97.60
17452;DHT22;8843;48.838;9.324;2024-01-25T11:55:05;11.10;97.50
17452;DHT22;8843;48.838;9.324;2024-01-25T11:57:35;11.10;97.50
17452;DHT22;8843;48.838;9.324;2024-01-25T12:00:03;11.10;97.70
17452;DHT22;8843;48.838;9.324;2024-01-25T12:02:31;11.30;97.10
17452;DHT22;8843;48.838;9.324;2024-01-25T12:05:03;11.30;96.90
17452;DHT22;8843;48.838;9.324;2024-01-25T12:07:34;11.30;96.10
17452;DHT22;8843;48.838;9.324;2024-01-25T12:10:06;11.40;96.30
17452;DHT22;8843;48.838;9.324;2024-01-25T12:12:35;11.40;95.90
17452;DHT22;8843;48.838;9.324;2024-01-25T12:15:06;11.30;95.80
17452;DHT22;8843;48.838;9.324;2024-01-25T12:17:34;11.20;95.40
17452;DHT22;8843;48.838;9.324;2024-01-25T12:20:04;11.30;96.00
17452;DHT22;8843;48.838;9.324;2024-01-25T12:22:36;11.20;95.90
17452;DHT22;8843;48.838;9.324;2024-01-25T12:25:07;11.20;96.20
17452;DHT22;8843;48.838;9.324;2024-01-25T12:27:34;11.30;96.00
17452;DHT22;8843;48.838;9.324;2024-01-25T12:30:03;11.20;95.80
17452;DHT22;8843;48.838;9.324;2024-01-25T12:32:30;11.20;95.70
17452;DHT22;8843;48.838;9.324;2024-01-25T12:34:59;11.30;95.00
17452;DHT22;8843;48.838;9.324;2024-01-25T12:37:28;11.20;94.80
17452;DHT22;8843;48.838;9.324;2024-01-25T12:39:55;11.30;94.90
17452;DHT22;8843;48.838;9.324;2024-01-25T12:42:24;11.30;94.80
17452;DHT22;8843;48.838;9.324;2024-01-25T12:44:53;11.40;94.90
17452;DHT22;8843;48.838;9.324;2024-01-25T12:47:20;11.50;94.30
17452;DHT22;8843;48.838;9.324;2024-01-25T12:49:48;11.60;94.60
17452;DHT22;8843;48.838;9.324;2024-01-25T12:52:17;11.60;94.40
17452;DHT22;8843;48.838;9.324;2024-01-25T12:54:48;11.60;95.10
17452;DHT22;8843;48.838;9.324;2024-01-25T12:57:15;11.70;94.60
17452;DHT22;8843;48.838;9.324;2024-01-25T12:59:44;11.80;95.10
17452;DHT22;8843;48.838;9.324;2024-01-25T13:02:12;11.80;95.00
17452;DHT22;8843;48.838;9.324;2024-01-25T13:04:41;12.00;94.60
17452;DHT22;8843;48.838;9.324;2024-01-25T13:07:08;12.00;94.50
17452;DHT22;8843;48.838;9.324;2024-01-25T13:09:35;12.10;93.10
17452;DHT22;8843;48.838;9.324;2024-01-25T13:12:05;12.10;93.00
17452;DHT22;8843;48.838;9.324;2024-01-25T13:14:32;12.10;93.20
17452;DHT22;8843;48.838;9.324;2024-01-25T13:16:59;12.20;92.60
17452;DHT22;8843;48.838;9.324;2024-01-25T13:19:26;12.10;92.60
17452;DHT22;8843;48.838;9.324;2024-01-25T13:21:53;12.20;92.70
17452;DHT22;8843;48.838;9.324;2024-01-25T13:24:22;12.10;92.50
17452;DHT22;8843;48.838;9.324;2024-01-25T13:26:49;12.20;92.10
17452;DHT22;8843;48.838;9.324;2024-01-25T13:29:17;12.20;91.80
17452;DHT22;8843;48.838;9.324;2024-01-25T13:31:44;12.20;91.80
17452;DHT22;8843;48.838;9.324;2024-01-25T13:34:11;12.20;92.00
17452;DHT22;8843;48.838;9.324;2024-01-25T13:36:39;12.20;92.30
17452;DHT22;8843;48.838;9.324;2024-01-25T13:39:06;12.10;92.60
17452;DHT22;8843;48.838;9.324;2024-01-25T13:41:35;12.20;92.20
17452;DHT22;8843;48.838;9.324;2024-01-25T13:44:02;12.20;92.00
17452;DHT22;8843;48.838;9.324;2024-01-25T13:46:31;12.30;92.00
17452;DHT22;8843;48.838;9.324;2024-01-25T13:48:59;12.40;91.40
17452;DHT22;8843;48.838;9.324;2024-01-25T13:51:26;12.30;91.50
17452;DHT22;8843;48.838;9.324;2024-01-25T13:53:53;12.30;91.00
17452;DHT22;8843;48.838;9.324;2024-01-25T13:56:23;12.30;90.60
17452;DHT22;8843;48.838;9.324;2024-01-25T13:58:51;12.30;91.20
17452;DHT22;8843;48.838;9.324;2024-01-25T14:01:18;12.20;91.10
17452;DHT22;8843;48.838;9.324;2024-01-25T14:03:46;12.30;91.10
17452;DHT22;8843;48.838;9.324;2024-01-25T14:06:13;12.20;91.20
17452;DHT22;8843;48.838;9.324;2024-01-25T14:08:40;12.30;91.10
17452;DHT22;8843;48.838;9.324;2024-01-25T14:11:10;12.30;90.90
17452;DHT22;8843;48.838;9.324;2024-01-25T14:13:37;12.20;89.80
17452;DHT22;8843;48.838;9.324;2024-01-25T14:16:05;12.20;90.10
17452;DHT22;8843;48.838;9.324;2024-01-25T14:18:37;12.10;90.10
17452;DHT22;8843;48.838;9.324;2024-01-25T14:21:06;12.10;90.60
17452;DHT22;8843;48.838;9.324;2024-01-25T14:23:33;12.20;89.30
17452;DHT22;8843;48.838;9.324;2024-01-25T14:26:01;12.10;89.30
17452;DHT22;8843;48.838;9.324;2024-01-25T14:28:28;12.10;90.10
17452;DHT22;8843;48.838;9.324;2024-01-25T14:30:55;12.20;89.70
17452;DHT22;8843;48.838;9.324;2024-01-25T14:33:22;12.10;90.00
17452;DHT22;8843;48.838;9.324;2024-01-25T14:35:49;12.10;90.00
17452;DHT22;8843;48.838;9.324;2024-01-25T14:38:18;12.00;89.50
17452;DHT22;8843;48.838;9.324;2024-01-25T14:40:45;12.00;89.80
17452;DHT22;8843;48.838;9.324;2024-01-25T14:43:12;11.90;89.40
17452;DHT22;8843;48.838;9.324;2024-01-25T14:45:42;11.80;89.90
17452;DHT22;8843;48.838;9.324;2024-01-25T14:48:09;11.80;90.30
17452;DHT22;8843;48.838;9.324;2024-01-25T14:50:37;11.70;90.60
17452;DHT22;8843;48.838;9.324;2024-01-25T14:53:04;11.70;90.30
17452;DHT22;8843;48.838;9.324;2024-01-25T14:55:32;11.60;90.40
17452;DHT22;8843;48.838;9.324;2024-01-25T14:57:59;11.60;90.20
17452;DHT22;8843;48.838;9.324;2024-01-25T15:00:26;11.60;90.20
17452;DHT22;8843;48.838;9.324;2024-01-25T15:02:53;11.60;90.10
17452;DHT22;8843;48.838;9.324;2024-01-25T15:05:22;11.60;90.10
17452;DHT22;8843;48.838;9.324;2024-01-25T15:07:49;11.60;90.10
17452;DHT22;8843;48.838;9.324;2024-01-25T15:10:16;11.60;90.20
17452;DHT22;8843;48.838;9.324;2024-01-25T15:12:45;11.60;90.30
17452;DHT22;8843;48.838;9.324;2024-01-25T15:15:12;11.60;90.20
17452;DHT22;8843;48.838;9.324;2024-01-25T15:17:39;11.60;90.00
17452;DHT22;8843;48.838;9.324;2024-01-25T15:20:08;11.60;90.00
17452;DHT22;8843;48.838;9.324;2024-01-25T15:22:35;11.60;90.10
17452;DHT22;8843;48.838;9.324;2024-01-25T15:25:05;11.60;90.10
17452;DHT22;8843;48.838;9.324;2024-01-25T15:27:32;11.60;90.00
17452;DHT22;8843;48.838;9.324;2024-01-25T15:30:01;11.60;90.00
17452;DHT22;8843;48.838;9.324;2024-01-25T15:32:29;11.60;90.00
17452;DHT22;8843;48.838;9.324;2024-01-25T15:34:56;11.60;89.80
17452;DHT22;8843;48.838;9.324;2024-01-25T15:37:24;11.60;89.70
17452;DHT22;8843;48.838;9.324;2024-01-25T15:39:54;11.60;89.60
17452;DHT22;8843;48.838;9.324;2024-01-25T15:42:21;11.50;89.70
17452;DHT22;8843;48.838;9.324;2024-01-25T15:44:53;11.60;90.20
17452;DHT22;8843;48.838;9.324;2024-01-25T15:47:21;11.60;89.50
17452;DHT22;8843;48.838;9.324;2024-01-25T15:49:48;11.50;89.70
17452;DHT22;8843;48.838;9.324;2024-01-25T15:52:15;11.50;89.30
17452;DHT22;8843;48.838;9.324;2024-01-25T15:54:43;11.50;89.60
17452;DHT22;8843;48.838;9.324;2024-01-25T15:57:10;11.50;89.50
17452;DHT22;8843;48.838;9.324;2024-01-25T15:59:37;11.50;89.50
17452;DHT22;8843;48.838;9.324;2024-01-25T16:02:04;11.50;89.50